Terminal Aerodrome Forecast
Issued by NWS

Home | Current Version | Previous Version | Text Only | Print | Product List | Glossary On
Versions: 1 2 3 4 5 6 7 8 9 10 11 12 13 14 15 16 17 18 19
633
FTUS43 KBIS 100900 AAA
TAFMOT
TAF AMD
KMOT 100900Z 1009/1106 12010KT P6SM -SN OVC035
     FM101300 12009KT P6SM OVC015
     FM101500 09008KT P6SM OVC008
     FM101800 06006KT P6SM OVC010
     FM101900 03006KT P6SM OVC010=

USA.gov is the U.S. government's official web portal to all federal, state and local government web resources and services.